| time (UTC) | temp F | wind direction | speed MPH | gust MPH | rain 1hr in | rain 24hr in | rain mn in | humidity % | barometer mb |
| 20260504175026 | 62 | 261 | 15.0 | 24.0 | 0.00 | 0.00 | 0.00 | 45 | 1006.8 |
| 20260504174542 | 62 | 277 | 9.0 | 16.0 | 0.00 | 0.00 | 0.00 | 44 | 1006.7 |
| 20260504174033 | 62 | 265 | 11.0 | 18.0 | 0.00 | 0.00 | 0.00 | 46 | 1006.6 |
| 20260504173540 | 61 | 242 | 12.0 | 18.0 | 0.00 | 0.00 | 0.00 | 47 | 1006.8 |
| 20260504173054 | 61 | 276 | 14.0 | 22.0 | 0.00 | 0.00 | 0.00 | 44 | 1006.8 |
| 20260504172542 | 61 | 279 | 11.0 | 22.0 | 0.00 | 0.00 | 0.00 | 43 | 1006.8 |
| 20260504172019 | 61 | 261 | 13.0 | 20.0 | 0.00 | 0.00 | 0.00 | 47 | 1006.8 |
| 20260504171549 | 61 | 273 | 11.0 | 20.0 | 0.00 | 0.00 | 0.00 | 43 | 1006.7 |
| 20260504171018 | 61 | 232 | 14.0 | 21.0 | 0.00 | 0.00 | 0.00 | 47 | 1007.0 |
| 20260504170525 | 61 | 246 | 16.0 | 21.0 | 0.00 | 0.00 | 0.00 | 46 | 1006.9 |
| 20260504151025 | 57 | 288 | 13.0 | 21.0 | 0.00 | 0.00 | 0.00 | 55 | 1008.0 |
| 20260504150523 | 57 | 251 | 16.0 | 21.0 | 0.00 | 0.00 | 0.00 | 53 | 1008.1 |
| 20260504141018 | 56 | 286 | 11.0 | 18.0 | 0.00 | 0.00 | 0.00 | 57 | 1008.3 |
| 20260504140546 | 56 | 247 | 11.0 | 20.0 | 0.00 | 0.00 | 0.00 | 55 | 1008.4 |
| 20260504130528 | 53 | 273 | 10.0 | 16.0 | 0.00 | 0.00 | 0.00 | 62 | 1008.7 |
| 20260504110545 | 44 | 228 | 3.0 | 6.0 | 0.00 | 0.00 | 0.00 | 75 | 1009.1 |
| 20260504100525 | 42 | 110 | 0.0 | 2.0 | 0.00 | 0.00 | 0.00 | 79 | 1009.0 |
| 20260504081523 | 46 | 266 | 6.0 | 7.0 | 0.00 | 0.00 | 0.00 | 69 | 1009.0 |
| 20260504081018 | 46 | 286 | 5.0 | 6.0 | 0.00 | 0.00 | 0.00 | 68 | 1008.9 |
| 20260504080527 | 46 | 262 | 5.0 | 7.0 | 0.00 | 0.00 | 0.00 | 67 | 1008.9 |
| 20260504050550 | 35 | 304 | 0.0 | 0.0 | 0.00 | 0.00 | 0.00 | 92 | 1008.9 |
| 20260504045535 | 35 | 304 | 0.0 | 0.0 | 0.00 | 0.00 | 0.00 | 92 | 1009.0 |
| 20260504045024 | 34 | 304 | 0.0 | 0.0 | 0.00 | 0.00 | 0.00 | 92 | 1009.0 |
| 20260504044518 | 34 | 304 | 0.0 | 0.0 | 0.00 | 0.00 | 0.00 | 92 | 1009.0 |
| 20260504044031 | 34 | 304 | 0.0 | 0.0 | 0.00 | 0.00 | 0.00 | 93 | 1009.1 |
| 20260504043522 | 33 | 304 | 0.0 | 0.0 | 0.00 | 0.00 | 0.00 | 93 | 1009.1 |
| 20260504043023 | 33 | 304 | 0.0 | 0.0 | 0.00 | 0.00 | 0.00 | 94 | 1009.1 |
| 20260504042552 | 33 | 304 | 0.0 | 0.0 | 0.00 | 0.00 | 0.00 | 93 | 1009.1 |
| 20260504042024 | 32 | 304 | 0.0 | 0.0 | 0.00 | 0.00 | 0.00 | 93 | 1009.0 |
| 20260504041521 | 32 | 304 | 0.0 | 0.0 | 0.00 | 0.00 | 0.00 | 93 | 1009.1 |
| 20260504041034 | 32 | 304 | 0.0 | 0.0 | 0.00 | 0.00 | 0.00 | 93 | 1009.0 |
| 20260504040543 | 32 | 304 | 0.0 | 0.0 | 0.00 | 0.00 | 0.00 | 92 | 1008.8 |
| 20260504040020 | 32 | 304 | 0.0 | 0.0 | 0.00 | 0.00 | 0.00 | 92 | 1008.8 |
| 20260504035531 | 32 | 304 | 0.0 | 0.0 | 0.00 | 0.00 | 0.00 | 92 | 1008.9 |
| 20260504035028 | 32 | 304 | 0.0 | 0.0 | 0.00 | 0.00 | 0.00 | 91 | 1008.9 |
| 20260504034522 | 32 | 304 | 0.0 | 0.0 | 0.00 | 0.00 | 0.00 | 91 | 1008.7 |
| 20260504034027 | 32 | 304 | 0.0 | 0.0 | 0.00 | 0.00 | 0.00 | 91 | 1008.7 |
| 20260504033536 | 32 | 304 | 0.0 | 0.0 | 0.00 | 0.00 | 0.00 | 90 | 1008.7 |
| 20260504033030 | 32 | 304 | 0.0 | 0.0 | 0.00 | 0.00 | 0.00 | 90 | 1008.7 |
| 20260504032519 | 32 | 304 | 0.0 | 0.0 | 0.00 | 0.00 | 0.00 | 89 | 1008.6 |
| 20260504032018 | 32 | 304 | 0.0 | 0.0 | 0.00 | 0.00 | 0.00 | 89 | 1008.7 |
| 20260504031536 | 32 | 304 | 0.0 | 0.0 | 0.00 | 0.00 | 0.00 | 88 | 1008.6 |
| 20260504031051 | 32 | 304 | 0.0 | 0.0 | 0.00 | 0.00 | 0.00 | 88 | 1008.6 |
| 20260504030543 | 33 | 304 | 0.0 | 0.0 | 0.00 | 0.00 | 0.00 | 88 | 1008.5 |
| 20260504030021 | 33 | 304 | 0.0 | 0.0 | 0.00 | 0.00 | 0.00 | 88 | 1008.6 |
| 20260504025545 | 33 | 304 | 0.0 | 1.0 | 0.00 | 0.00 | 0.00 | 87 | 1008.6 |
| 20260504025033 | 33 | 304 | 0.0 | 1.0 | 0.00 | 0.00 | 0.00 | 86 | 1008.6 |
| 20260504024520 | 33 | 296 | 0.0 | 0.0 | 0.00 | 0.00 | 0.00 | 86 | 1008.6 |
| 20260504024036 | 34 | 296 | 0.0 | 0.0 | 0.00 | 0.00 | 0.00 | 86 | 1008.6 |
| 20260504023528 | 34 | 296 | 0.0 | 0.0 | 0.00 | 0.00 | 0.00 | 85 | 1008.6 |
| 20260504023043 | 34 | 296 | 0.0 | 0.0 | 0.00 | 0.00 | 0.00 | 85 | 1008.5 |
| 20260504022539 | 34 | 296 | 0.0 | 0.0 | 0.00 | 0.00 | 0.00 | 85 | 1008.5 |
| 20260504022051 | 35 | 296 | 0.0 | 0.0 | 0.00 | 0.00 | 0.00 | 84 | 1008.5 |
| 20260504021529 | 35 | 296 | 0.0 | 0.0 | 0.00 | 0.00 | 0.00 | 83 | 1008.5 |
| 20260504021030 | 35 | 296 | 0.0 | 0.0 | 0.00 | 0.00 | 0.00 | 83 | 1008.4 |
| 20260504020546 | 35 | 296 | 0.0 | 0.0 | 0.00 | 0.00 | 0.00 | 83 | 1008.4 |
| 20260504020041 | 35 | 296 | 0.0 | 0.0 | 0.00 | 0.00 | 0.00 | 82 | 1008.4 |
| 20260504015531 | 36 | 296 | 0.0 | 0.0 | 0.00 | 0.00 | 0.00 | 82 | 1008.3 |
| 20260504015039 | 36 | 296 | 0.0 | 0.0 | 0.00 | 0.00 | 0.00 | 81 | 1008.3 |
| 20260504014520 | 36 | 296 | 0.0 | 0.0 | 0.00 | 0.00 | 0.00 | 81 | 1008.3 |
| 20260504014108 | 37 | 296 | 0.0 | 0.0 | 0.00 | 0.00 | 0.00 | 80 | 1008.2 |
| 20260504013526 | 37 | 296 | 0.0 | 0.0 | 0.00 | 0.00 | 0.00 | 80 | 1008.3 |
| 20260504013022 | 37 | 296 | 0.0 | 0.0 | 0.00 | 0.00 | 0.00 | 80 | 1008.2 |
| 20260504012555 | 38 | 296 | 0.0 | 0.0 | 0.00 | 0.00 | 0.00 | 80 | 1008.2 |
| 20260504012030 | 38 | 296 | 0.0 | 0.0 | 0.00 | 0.00 | 0.00 | 78 | 1008.1 |
| 20260504011544 | 38 | 296 | 0.0 | 0.0 | 0.00 | 0.00 | 0.00 | 77 | 1008.1 |
| 20260504011042 | 39 | 296 | 0.0 | 0.0 | 0.00 | 0.00 | 0.00 | 77 | 1008.0 |
| 20260504010546 | 39 | 296 | 0.0 | 0.0 | 0.00 | 0.00 | 0.00 | 77 | 1008.0 |
| 20260504010027 | 40 | 296 | 0.0 | 1.0 | 0.00 | 0.00 | 0.00 | 76 | 1007.9 |
| 20260504005532 | 40 | 296 | 0.0 | 1.0 | 0.00 | 0.00 | 0.00 | 73 | 1007.8 |
| 20260504005025 | 40 | 296 | 0.0 | 0.0 | 0.00 | 0.00 | 0.00 | 71 | 1007.7 |
| 20260504004605 | 41 | 296 | 0.0 | 0.0 | 0.00 | 0.00 | 0.00 | 70 | 1007.7 |
| 20260504004033 | 42 | 296 | 0.0 | 0.0 | 0.00 | 0.00 | 0.00 | 70 | 1007.6 |
| 20260504003542 | 42 | 296 | 0.0 | 1.0 | 0.00 | 0.00 | 0.00 | 67 | 1007.6 |
| 20260504003020 | 43 | 296 | 0.0 | 1.0 | 0.00 | 0.00 | 0.00 | 65 | 1007.5 |
| 20260504002604 | 44 | 296 | 0.0 | 0.0 | 0.00 | 0.00 | 0.00 | 56 | 1007.4 |
| 20260504002021 | 45 | 296 | 0.0 | 0.0 | 0.00 | 0.00 | 0.00 | 54 | 1007.4 |
| 20260504001600 | 45 | 296 | 0.0 | 0.0 | 0.00 | 0.00 | 0.00 | 54 | 1007.4 |
| 20260504001030 | 46 | 296 | 0.0 | 1.0 | 0.00 | 0.00 | 0.00 | 53 | 1007.3 |
| 20260504000520 | 46 | 296 | 0.0 | 2.0 | 0.00 | 0.00 | 0.00 | 53 | 1007.2 |
| 20260504000035 | 47 | 296 | 0.0 | 2.0 | 0.00 | 0.00 | 0.00 | 51 | 1007.2 |
| 20260503235546 | 47 | 296 | 0.0 | 3.0 | 0.00 | 0.00 | 0.00 | 51 | 1007.2 |
| 20260503235038 | 47 | 295 | 1.0 | 3.0 | 0.00 | 0.00 | 0.00 | 55 | 1007.2 |
| 20260503234535 | 47 | 293 | 2.0 | 6.0 | 0.00 | 0.00 | 0.00 | 52 | 1007.3 |
| 20260503234024 | 48 | 316 | 4.0 | 7.0 | 0.00 | 0.00 | 0.00 | 52 | 1007.2 |
| 20260503233519 | 48 | 294 | 5.0 | 7.0 | 0.00 | 0.00 | 0.00 | 49 | 1007.1 |
| 20260503233032 | 48 | 313 | 1.0 | 6.0 | 0.00 | 0.00 | 0.00 | 51 | 1007.1 |
| 20260503232544 | 48 | 299 | 1.0 | 6.0 | 0.00 | 0.00 | 0.00 | 49 | 1007.0 |
| 20260503232025 | 49 | 296 | 2.0 | 11.0 | 0.00 | 0.00 | 0.00 | 50 | 1007.0 |
| 20260503231522 | 49 | 309 | 6.0 | 11.0 | 0.00 | 0.00 | 0.00 | 50 | 1006.8 |
| 20260503231034 | 49 | 318 | 5.0 | 10.0 | 0.00 | 0.00 | 0.00 | 54 | 1006.8 |
| 20260503230532 | 49 | 295 | 7.0 | 14.0 | 0.00 | 0.00 | 0.00 | 53 | 1006.8 |
| 20260503230048 | 49 | 286 | 7.0 | 13.0 | 0.00 | 0.00 | 0.00 | 50 | 1006.7 |
| 20260503225528 | 49 | 277 | 6.0 | 12.0 | 0.00 | 0.00 | 0.00 | 48 | 1006.8 |
| 20260503225037 | 50 | 284 | 6.0 | 19.0 | 0.00 | 0.00 | 0.00 | 51 | 1006.6 |
| 20260503224557 | 50 | 324 | 5.0 | 14.0 | 0.00 | 0.00 | 0.00 | 50 | 1006.7 |
| 20260503224048 | 50 | 295 | 10.0 | 16.0 | 0.00 | 0.00 | 0.00 | 51 | 1006.6 |
| 20260503223523 | 49 | 299 | 10.0 | 16.0 | 0.00 | 0.00 | 0.00 | 49 | 1006.5 |
| 20260503223019 | 49 | 258 | 6.0 | 17.0 | 0.00 | 0.00 | 0.00 | 51 | 1006.6 |
| 20260503222531 | 49 | 306 | 12.0 | 17.0 | 0.00 | 0.00 | 0.00 | 51 | 1006.5 |
| 20260503222021 | 49 | 298 | 4.0 | 10.0 | 0.00 | 0.00 | 0.00 | 51 | 1006.5 |
| 20260503221532 | 49 | 286 | 4.0 | 12.0 | 0.00 | 0.00 | 0.00 | 48 | 1006.4 |
| 20260503221028 | 49 | 273 | 5.0 | 12.0 | 0.00 | 0.00 | 0.00 | 49 | 1006.3 |
| 20260503220541 | 49 | 302 | 4.0 | 12.0 | 0.00 | 0.00 | 0.00 | 48 | 1006.4 |
| 20260503220020 | 49 | 304 | 5.0 | 12.0 | 0.00 | 0.00 | 0.00 | 50 | 1006.4 |
| 20260503215532 | 49 | 299 | 2.0 | 12.0 | 0.00 | 0.00 | 0.00 | 49 | 1006.4 |
| 20260503215031 | 48 | 243 | 4.0 | 12.0 | 0.00 | 0.00 | 0.00 | 48 | 1006.4 |
| 20260503214527 | 48 | 276 | 5.0 | 10.0 | 0.00 | 0.00 | 0.00 | 52 | 1006.5 |
| 20260503214035 | 48 | 153 | 2.0 | 11.0 | 0.00 | 0.00 | 0.00 | 48 | 1006.4 |
| 20260503213524 | 48 | 329 | 4.0 | 11.0 | 0.00 | 0.00 | 0.00 | 50 | 1006.4 |
| 20260503213034 | 48 | 349 | 2.0 | 14.0 | 0.00 | 0.00 | 0.00 | 49 | 1006.3 |
| 20260503212539 | 49 | 330 | 6.0 | 14.0 | 0.00 | 0.00 | 0.00 | 47 | 1006.3 |
| 20260503212052 | 48 | 324 | 3.0 | 13.0 | 0.00 | 0.00 | 0.00 | 51 | 1006.3 |
| 20260503211545 | 48 | 286 | 5.0 | 12.0 | 0.00 | 0.00 | 0.00 | 53 | 1006.1 |
| 20260503211100 | 48 | 277 | 7.0 | 12.0 | 0.00 | 0.00 | 0.00 | 49 | 1006.2 |
| 20260503210533 | 48 | 317 | 4.0 | 12.0 | 0.00 | 0.00 | 0.00 | 48 | 1006.1 |
| 20260503210021 | 48 | 278 | 5.0 | 10.0 | 0.00 | 0.00 | 0.00 | 51 | 1006.0 |
| 20260503205549 | 48 | 271 | 4.0 | 10.0 | 0.00 | 0.00 | 0.00 | 49 | 1006.1 |
| 20260503205053 | 48 | 296 | 4.0 | 11.0 | 0.00 | 0.00 | 0.00 | 51 | 1006.0 |
| 20260503204537 | 48 | 270 | 5.0 | 13.0 | 0.00 | 0.00 | 0.00 | 48 | 1005.9 |
| 20260503204026 | 48 | 276 | 7.0 | 13.0 | 0.00 | 0.00 | 0.00 | 52 | 1006.0 |
| 20260503203539 | 48 | 304 | 5.0 | 11.0 | 0.00 | 0.00 | 0.00 | 52 | 1005.9 |
| 20260503203034 | 48 | 283 | 6.0 | 12.0 | 0.00 | 0.00 | 0.00 | 55 | 1005.9 |
| 20260503202546 | 48 | 291 | 4.0 | 12.0 | 0.00 | 0.00 | 0.00 | 52 | 1005.8 |
| 20260503202042 | 48 | 268 | 6.0 | 12.0 | 0.00 | 0.00 | 0.00 | 52 | 1005.8 |
| 20260503201526 | 48 | 291 | 4.0 | 15.0 | 0.00 | 0.00 | 0.00 | 55 | 1005.8 |
| 20260503201036 | 48 | 257 | 7.0 | 19.0 | 0.00 | 0.00 | 0.00 | 50 | 1005.7 |
| 20260503200533 | 48 | 289 | 7.0 | 15.0 | 0.00 | 0.00 | 0.00 | 49 | 1005.7 |
| 20260503200032 | 48 | 270 | 10.0 | 14.0 | 0.00 | 0.00 | 0.00 | 48 | 1005.7 |
| 20260503195541 | 48 | 313 | 7.0 | 15.0 | 0.00 | 0.00 | 0.00 | 49 | 1005.7 |
| 20260503195031 | 48 | 295 | 8.0 | 15.0 | 0.00 | 0.00 | 0.00 | 47 | 1005.7 |
| 20260503194528 | 49 | 297 | 6.0 | 12.0 | 0.00 | 0.00 | 0.00 | 50 | 1005.7 |
| 20260503194037 | 48 | 274 | 6.0 | 18.0 | 0.00 | 0.00 | 0.00 | 51 | 1005.7 |
| 20260503193530 | 48 | 265 | 7.0 | 18.0 | 0.00 | 0.00 | 0.00 | 48 | 1005.8 |
| 20260503193019 | 48 | 265 | 10.0 | 19.0 | 0.00 | 0.00 | 0.00 | 49 | 1005.7 |
| 20260503192527 | 48 | 248 | 7.0 | 16.0 | 0.00 | 0.00 | 0.00 | 52 | 1005.7 |
| 20260503192036 | 48 | 294 | 7.0 | 19.0 | 0.00 | 0.00 | 0.00 | 50 | 1005.6 |
| 20260503191519 | 49 | 267 | 5.0 | 19.0 | 0.00 | 0.00 | 0.00 | 49 | 1005.6 |
| 20260503191032 | 49 | 309 | 5.0 | 13.0 | 0.00 | 0.00 | 0.00 | 49 | 1005.5 |
| 20260503190528 | 49 | 5 | 3.0 | 14.0 | 0.00 | 0.00 | 0.00 | 48 | 1005.5 |
| 20260503190040 | 49 | 286 | 4.0 | 13.0 | 0.00 | 0.00 | 0.00 | 52 | 1005.5 |
| 20260503185528 | 48 | 267 | 9.0 | 20.0 | 0.00 | 0.00 | 0.00 | 52 | 1005.5 |
| 20260503185044 | 48 | 286 | 9.0 | 20.0 | 0.00 | 0.00 | 0.00 | 53 | 1005.6 |
| 20260503184556 | 48 | 314 | 11.0 | 16.0 | 0.00 | 0.00 | 0.00 | 56 | 1005.6 |
| 20260503184030 | 48 | 269 | 10.0 | 16.0 | 0.00 | 0.00 | 0.00 | 55 | 1005.7 |
| 20260503183526 | 48 | 271 | 9.0 | 16.0 | 0.00 | 0.00 | 0.00 | 51 | 1005.7 |
| 20260503183043 | 48 | 290 | 5.0 | 17.0 | 0.00 | 0.00 | 0.00 | 52 | 1005.6 |
| 20260503182554 | 48 | 300 | 4.0 | 19.0 | 0.00 | 0.00 | 0.00 | 50 | 1005.7 |
| 20260503182027 | 48 | 279 | 11.0 | 19.0 | 0.00 | 0.00 | 0.00 | 55 | 1005.7 |
| 20260503181607 | 48 | 277 | 10.0 | 19.0 | 0.00 | 0.00 | 0.00 | 53 | 1005.6 |
| 20260503181022 | 48 | 313 | 10.0 | 25.0 | 0.00 | 0.00 | 0.00 | 55 | 1005.7 |
| 20260503180532 | 48 | 287 | 9.0 | 25.0 | 0.00 | 0.00 | 0.00 | 53 | 1005.7 |
| 20260503180031 | 48 | 311 | 7.0 | 17.0 | 0.00 | 0.00 | 0.00 | 55 | 1005.7 |
| 20260503175548 | 48 | 308 | 7.0 | 15.0 | 0.00 | 0.00 | 0.00 | 55 | 1005.7 |